Paauilo, Hawaii
Current Conditions -  °F | °C
As of 6:56 AM on Tuesday 21 Oct 2014 (Local Time) from PHSF Reporting Station
Clear Clear  
Wind Chill: 55°   Ceiling: Unl
Heat Index: 55°   Visibility: 10mi
Dew Point: 29°   Wind: 5mph
Humidity: 37%   Direction: 30°NNE
Pressure: 30.36"   Gusts: 13mph
Location:  20.03°N, 155.36°W
Report Text: PHSF 211656Z AUTO 03004G11KT 10SM CLR 13/M02 A3036 RMK AO2 SLP172 T01281017 $
Loading
Personal Weather Stations






























Interactive Weather Map
Tropical Storm Tracking
New forecast layout! Learn more

10-Day Weather Forecast

Advertisements
Track Severe Weather on mobile